Time;durP1;ratioP1;P1;durP2;ratioP2;P2;SDS_P1;SDS_P2;PMS_P1;PMS_P2;Temp;Humidity;BMP_temperature;BMP_pressure;BME280_temperature;BME280_humidity;BME280_pressure;Samples;Min_cycle;Max_cycle;Signal;HPM_P1;HPM_P2
2021/05/07 00:01:04;;;;;;;2.63;2.08;;;;;;;;;;10338134;28;20079;-60
2021/05/07 00:06:04;;;;;;;4.07;1.80;;;;;;;;;;10335842;28;20067;-60
2021/05/07 00:11:03;;;;;;;2.97;1.65;;;;;;;;;;10336118;28;20083;-60
2021/05/07 00:16:01;;;;;;;2.13;1.70;;;;;;;;;;10337154;28;20079;-59
2021/05/07 00:20:58;;;;;;;2.00;1.42;;;;;;;;;;10333724;28;20040;-60
2021/05/07 00:25:56;;;;;;;3.03;1.70;;;;;;;;;;10335634;28;20059;-60
2021/05/07 00:30:53;;;;;;;1.80;1.52;;;;;;;;;;10332584;28;20076;-60
2021/05/07 00:35:52;;;;;;;2.10;1.77;;;;;;;;;;10336467;28;20083;-61
2021/05/07 00:40:49;;;;;;;3.97;1.50;;;;;;;;;;10332884;28;20063;-60
2021/05/07 00:45:46;;;;;;;3.45;1.80;;;;;;;;;;10335741;28;20395;-61
2021/05/07 00:50:45;;;;;;;2.20;1.70;;;;;;;;;;10336032;28;20088;-61
2021/05/07 00:55:44;;;;;;;1.58;1.48;;;;;;;;;;10334045;28;20047;-60
2021/05/07 01:00:46;;;;;;;1.77;1.40;;;;;;;;;;10335016;28;20056;-60
2021/05/07 01:05:43;;;;;;;3.13;1.80;;;;;;;;;;10334179;28;20052;-60
2021/05/07 01:10:43;;;;;;;2.95;1.55;;;;;;;;;;10336161;28;20072;-60
2021/05/07 01:15:42;;;;;;;5.40;1.40;;;;;;;;;;10332991;28;20053;-58
2021/05/07 01:20:41;;;;;;;2.53;1.90;;;;;;;;;;10334812;28;20044;-57
2021/05/07 01:25:40;;;;;;;3.78;1.70;;;;;;;;;;10330814;28;20047;-58
2021/05/07 01:30:39;;;;;;;2.65;2.05;;;;;;;;;;10332112;28;20047;-59
2021/05/07 01:35:37;;;;;;;3.92;1.80;;;;;;;;;;10342036;28;20421;-59
2021/05/07 01:40:36;;;;;;;3.25;1.80;;;;;;;;;;10340148;28;20059;-59
2021/05/07 01:45:35;;;;;;;2.22;1.50;;;;;;;;;;10342286;28;20536;-59
2021/05/07 01:50:34;;;;;;;2.47;1.77;;;;;;;;;;10341329;28;20075;-59
2021/05/07 01:55:32;;;;;;;4.82;1.45;;;;;;;;;;10339641;28;20433;-59
2021/05/07 02:00:31;;;;;;;3.38;1.90;;;;;;;;;;10341724;28;20056;-59
2021/05/07 02:05:32;;;;;;;2.42;1.70;;;;;;;;;;10339434;28;20048;-59
2021/05/07 02:10:32;;;;;;;3.78;1.48;;;;;;;;;;10341263;28;20067;-60
2021/05/07 02:15:31;;;;;;;2.05;1.60;;;;;;;;;;10339549;28;20076;-59
2021/05/07 02:20:29;;;;;;;4.60;1.83;;;;;;;;;;10342331;28;20060;-59
2021/05/07 02:25:27;;;;;;;2.08;1.65;;;;;;;;;;10335609;28;20048;-60
2021/05/07 02:30:28;;;;;;;5.63;2.65;;;;;;;;;;10337385;28;20044;-59
2021/05/07 02:35:28;;;;;;;6.57;1.60;;;;;;;;;;10339982;28;20118;-59
2021/05/07 02:40:26;;;;;;;3.83;2.47;;;;;;;;;;10339103;28;20036;-60
2021/05/07 02:45:23;;;;;;;3.95;2.42;;;;;;;;;;10339687;28;20076;-59
2021/05/07 02:50:21;;;;;;;2.00;1.60;;;;;;;;;;10339936;28;20051;-59
2021/05/07 02:55:19;;;;;;;3.63;2.42;;;;;;;;;;10337695;28;20045;-59
2021/05/07 03:00:17;;;;;;;5.15;2.83;;;;;;;;;;10339221;28;20052;-59
2021/05/07 03:05:15;;;;;;;2.33;1.63;;;;;;;;;;10337632;28;20055;-59
2021/05/07 03:10:12;;;;;;;2.95;1.65;;;;;;;;;;10336633;28;20072;-59
2021/05/07 03:15:12;;;;;;;5.20;2.85;;;;;;;;;;10340036;28;20068;-59
2021/05/07 03:20:10;;;;;;;3.05;2.47;;;;;;;;;;10338419;28;20082;-60
2021/05/07 03:25:07;;;;;;;5.43;2.00;;;;;;;;;;10338909;28;20041;-59
2021/05/07 03:30:06;;;;;;;4.50;1.63;;;;;;;;;;10338425;28;20071;-59
2021/05/07 03:35:04;;;;;;;1.58;1.30;;;;;;;;;;10336999;28;20070;-59
2021/05/07 03:40:02;;;;;;;1.88;1.55;;;;;;;;;;10337466;28;20095;-59
2021/05/07 03:44:59;;;;;;;2.85;1.80;;;;;;;;;;10332031;28;20071;-59
2021/05/07 03:49:56;;;;;;;3.45;1.40;;;;;;;;;;10334065;28;20044;-59
2021/05/07 03:54:55;;;;;;;3.70;1.58;;;;;;;;;;10337199;28;20072;-59
2021/05/07 03:59:54;;;;;;;2.72;1.13;;;;;;;;;;10336140;28;20094;-59
2021/05/07 04:04:52;;;;;;;2.42;1.45;;;;;;;;;;10337462;28;20056;-59
2021/05/07 04:09:53;;;;;;;3.90;1.35;;;;;;;;;;10337444;28;20075;-59
2021/05/07 04:14:51;;;;;;;13.57;7.38;;;;;;;;;;10337038;28;20071;-59
2021/05/07 04:19:49;;;;;;;6.85;4.45;;;;;;;;;;10337226;28;20498;-59
2021/05/07 04:24:46;;;;;;;6.65;4.03;;;;;;;;;;10334964;28;20062;-59
2021/05/07 04:29:43;;;;;;;11.32;4.65;;;;;;;;;;10337815;28;20064;-59
2021/05/07 04:34:41;;;;;;;7.93;3.67;;;;;;;;;;10335596;28;20064;-59
2021/05/07 04:39:39;;;;;;;6.43;3.97;;;;;;;;;;10337039;28;20095;-58
2021/05/07 04:44:36;;;;;;;7.80;3.88;;;;;;;;;;10336004;28;20524;-58
2021/05/07 04:49:34;;;;;;;4.55;3.13;;;;;;;;;;10335786;28;20077;-59
2021/05/07 04:54:33;;;;;;;8.88;3.45;;;;;;;;;;10336779;28;20060;-59
2021/05/07 04:59:32;;;;;;;6.65;3.97;;;;;;;;;;10334929;28;20053;-58
2021/05/07 05:04:30;;;;;;;14.70;7.40;;;;;;;;;;10336879;28;20052;-57
2021/05/07 05:09:27;;;;;;;3.05;2.50;;;;;;;;;;10343064;28;20050;-56
2021/05/07 05:14:25;;;;;;;2.63;2.00;;;;;;;;;;10344437;28;20080;-58
2021/05/07 05:19:23;;;;;;;8.90;4.97;;;;;;;;;;10342908;28;20489;-58
2021/05/07 05:24:20;;;;;;;16.05;8.13;;;;;;;;;;10343678;28;20037;-56
2021/05/07 05:29:17;;;;;;;22.40;6.15;;;;;;;;;;10342650;28;20040;-54
2021/05/07 05:34:16;;;;;;;13.00;5.88;;;;;;;;;;10342128;28;20079;-58
2021/05/07 05:39:14;;;;;;;14.18;7.90;;;;;;;;;;10343948;28;20044;-58
2021/05/07 05:44:11;;;;;;;9.02;4.90;;;;;;;;;;10338664;28;20047;-58
2021/05/07 05:49:09;;;;;;;12.05;6.15;;;;;;;;;;10341987;28;20067;-58
2021/05/07 05:54:07;;;;;;;11.20;5.25;;;;;;;;;;10339955;28;20094;-58
2021/05/07 05:59:05;;;;;;;8.63;5.35;;;;;;;;;;10339689;28;20517;-59
2021/05/07 06:04:03;;;;;;;7.63;4.45;;;;;;;;;;10341486;28;20524;-59
2021/05/07 06:09:00;;;;;;;7.53;5.65;;;;;;;;;;10341088;28;20076;-59
2021/05/07 06:13:58;;;;;;;10.93;8.00;;;;;;;;;;10342307;28;21056;-59
2021/05/07 06:18:56;;;;;;;11.27;4.57;;;;;;;;;;10335514;28;20051;-59
2021/05/07 06:23:53;;;;;;;4.47;3.85;;;;;;;;;;10342079;28;20079;-60
2021/05/07 06:28:51;;;;;;;9.05;6.20;;;;;;;;;;10340478;28;20048;-60
2021/05/07 06:33:49;;;;;;;17.73;4.82;;;;;;;;;;10340952;28;20457;-60
2021/05/07 06:38:46;;;;;;;4.97;3.17;;;;;;;;;;10340674;28;20401;-59
2021/05/07 06:43:44;;;;;;;5.40;3.45;;;;;;;;;;10339592;28;20044;-60
2021/05/07 06:48:41;;;;;;;6.75;3.05;;;;;;;;;;10341289;28;20084;-59
2021/05/07 06:53:42;;;;;;;5.43;2.72;;;;;;;;;;10336462;28;20471;-59
2021/05/07 06:58:40;;;;;;;4.63;2.42;;;;;;;;;;10335690;28;20429;-59
2021/05/07 07:03:37;;;;;;;4.68;3.05;;;;;;;;;;10340053;28;20056;-59
2021/05/07 07:08:35;;;;;;;5.57;2.40;;;;;;;;;;10338812;28;20040;-59
2021/05/07 07:13:33;;;;;;;2.22;1.63;;;;;;;;;;10338974;28;20068;-59
2021/05/07 07:18:30;;;;;;;5.00;2.60;;;;;;;;;;10339352;28;20036;-59
2021/05/07 07:23:28;;;;;;;6.57;2.65;;;;;;;;;;10336010;28;20044;-59
2021/05/07 07:28:25;;;;;;;7.22;2.63;;;;;;;;;;10339121;28;20055;-59
2021/05/07 07:33:23;;;;;;;4.55;3.00;;;;;;;;;;10337058;28;20068;-60
2021/05/07 07:38:21;;;;;;;3.58;2.50;;;;;;;;;;10338774;28;20040;-59
2021/05/07 07:43:20;;;;;;;3.65;2.70;;;;;;;;;;10337680;28;20073;-59
2021/05/07 07:48:18;;;;;;;7.82;2.38;;;;;;;;;;10337756;28;20064;-59
2021/05/07 07:53:16;;;;;;;4.13;2.53;;;;;;;;;;10337909;28;20067;-59
2021/05/07 07:58:14;;;;;;;4.93;3.40;;;;;;;;;;10336914;28;20048;-59
2021/05/07 08:03:11;;;;;;;9.13;4.00;;;;;;;;;;10338096;28;20066;-57
2021/05/07 08:08:08;;;;;;;6.20;3.50;;;;;;;;;;10333762;28;20457;-58
2021/05/07 08:13:07;;;;;;;6.25;3.20;;;;;;;;;;10337246;28;20063;-58
2021/05/07 08:18:05;;;;;;;4.40;2.70;;;;;;;;;;10336264;28;20501;-57
2021/05/07 08:23:02;;;;;;;5.22;4.43;;;;;;;;;;10337002;28;20040;-58
2021/05/07 08:27:59;;;;;;;8.80;4.80;;;;;;;;;;10336426;28;20071;-58
2021/05/07 08:32:58;;;;;;;5.28;2.72;;;;;;;;;;10335848;28;20083;-58
2021/05/07 08:37:55;;;;;;;5.00;3.00;;;;;;;;;;10337438;28;20049;-58
2021/05/07 08:42:54;;;;;;;3.67;3.22;;;;;;;;;;10339058;28;20056;-58
2021/05/07 08:47:53;;;;;;;12.38;4.97;;;;;;;;;;10340547;28;20082;-58
2021/05/07 08:52:52;;;;;;;2.78;2.42;;;;;;;;;;10345145;28;20084;-58
2021/05/07 08:57:49;;;;;;;6.90;2.22;;;;;;;;;;10343395;28;20051;-58
2021/05/07 09:02:47;;;;;;;5.63;1.85;;;;;;;;;;10344175;28;20064;-57
2021/05/07 09:07:53;;;;;;;4.80;3.92;;;;;;;;;;10344071;28;20078;-58
2021/05/07 09:12:55;;;;;;;4.53;2.50;;;;;;;;;;10344062;28;20095;-60
2021/05/07 09:18:00;;;;;;;5.32;2.60;;;;;;;;;;10343210;28;20493;-58
2021/05/07 09:23:02;;;;;;;5.13;2.47;;;;;;;;;;10339962;28;20048;-58
2021/05/07 09:28:07;;;;;;;7.22;2.17;;;;;;;;;;10339970;28;20040;-59
2021/05/07 09:33:06;;;;;;;9.45;2.38;;;;;;;;;;10340543;28;20597;-58
2021/05/07 09:38:05;;;;;;;7.53;2.70;;;;;;;;;;10343969;28;20075;-57
2021/05/07 09:43:04;;;;;;;6.25;3.67;;;;;;;;;;10341746;28;20055;-57
2021/05/07 09:48:02;;;;;;;15.38;6.43;;;;;;;;;;10339096;28;20068;-58
2021/05/07 09:53:08;;;;;;;4.75;2.40;;;;;;;;;;10338372;28;20071;-58
2021/05/07 09:58:06;;;;;;;8.43;3.22;;;;;;;;;;10338866;28;20092;-58
2021/05/07 10:03:04;;;;;;;11.05;3.25;;;;;;;;;;10341499;28;20064;-58
2021/05/07 10:08:01;;;;;;;13.60;2.75;;;;;;;;;;10338608;28;20044;-59
2021/05/07 10:13:01;;;;;;;5.80;2.58;;;;;;;;;;10341940;28;20096;-58
2021/05/07 10:17:59;;;;;;;4.38;3.25;;;;;;;;;;10340690;28;20424;-59
2021/05/07 10:22:57;;;;;;;3.53;2.17;;;;;;;;;;10341099;28;20478;-59
2021/05/07 10:27:55;;;;;;;5.65;2.60;;;;;;;;;;10341076;28;20040;-59
2021/05/07 10:32:57;;;;;;;5.15;1.85;;;;;;;;;;10339855;28;20075;-59
2021/05/07 10:37:54;;;;;;;2.90;1.58;;;;;;;;;;10340763;28;20083;-58
2021/05/07 10:42:55;;;;;;;4.85;2.05;;;;;;;;;;10338722;28;20051;-59
2021/05/07 10:47:53;;;;;;;3.33;2.60;;;;;;;;;;10339921;28;20044;-59
2021/05/07 10:52:51;;;;;;;6.78;2.83;;;;;;;;;;10338876;28;20076;-58
2021/05/07 10:57:53;;;;;;;5.53;2.45;;;;;;;;;;10335862;28;20048;-59
2021/05/07 11:02:51;;;;;;;6.85;3.67;;;;;;;;;;10335709;28;20549;-58
2021/05/07 11:07:53;;;;;;;8.30;2.33;;;;;;;;;;10335733;28;20091;-58
2021/05/07 11:12:50;;;;;;;4.15;2.63;;;;;;;;;;10335721;28;20086;-58
2021/05/07 11:17:57;;;;;;;5.55;2.15;;;;;;;;;;10338835;28;20041;-59
2021/05/07 11:22:56;;;;;;;3.30;2.05;;;;;;;;;;10336138;28;20071;-57
2021/05/07 11:27:54;;;;;;;4.82;3.08;;;;;;;;;;10335583;28;20083;-58
2021/05/07 11:32:51;;;;;;;6.95;3.83;;;;;;;;;;10339066;28;20045;-57
2021/05/07 11:37:55;;;;;;;2.50;2.03;;;;;;;;;;10337552;28;20060;-59
2021/05/07 11:42:55;;;;;;;3.13;1.95;;;;;;;;;;10335586;28;20048;-58
2021/05/07 11:47:55;;;;;;;5.88;1.98;;;;;;;;;;10334745;28;20048;-58
2021/05/07 11:52:52;;;;;;;8.32;2.22;;;;;;;;;;10338310;28;20095;-57
2021/05/07 11:57:57;;;;;;;3.75;2.20;;;;;;;;;;10336247;28;20052;-59
2021/05/07 12:02:58;;;;;;;6.73;2.13;;;;;;;;;;10338608;28;20083;-59
2021/05/07 12:07:55;;;;;;;5.55;2.00;;;;;;;;;;10336121;28;20074;-58
2021/05/07 12:12:54;;;;;;;4.30;1.73;;;;;;;;;;10337170;28;20080;-57
2021/05/07 12:17:52;;;;;;;3.13;2.20;;;;;;;;;;10335528;28;20040;-59
2021/05/07 12:22:52;;;;;;;5.38;2.13;;;;;;;;;;10336558;28;20062;-58
2021/05/07 12:27:51;;;;;;;4.05;1.92;;;;;;;;;;10336651;28;20079;-58
2021/05/07 12:32:56;;;;;;;3.75;1.75;;;;;;;;;;10335696;28;20060;-59
2021/05/07 12:37:53;;;;;;;6.10;2.22;;;;;;;;;;10336135;28;20051;-58
2021/05/07 12:42:51;;;;;;;6.32;2.83;;;;;;;;;;10335452;28;20502;-60
2021/05/07 12:47:48;;;;;;;4.88;2.67;;;;;;;;;;10336942;28;20071;-59
2021/05/07 12:52:46;;;;;;;2.47;2.17;;;;;;;;;;10335142;28;20058;-59
2021/05/07 12:57:44;;;;;;;5.65;3.45;;;;;;;;;;10331871;28;20082;-58
2021/05/07 13:02:41;;;;;;;6.93;4.28;;;;;;;;;;10336959;28;20076;-59
2021/05/07 13:07:38;;;;;;;7.57;4.63;;;;;;;;;;10335249;28;20036;-58
2021/05/07 13:12:37;;;;;;;11.93;3.80;;;;;;;;;;10335049;28;20421;-58
2021/05/07 13:17:34;;;;;;;14.95;5.90;;;;;;;;;;10336126;28;20484;-59
2021/05/07 13:22:32;;;;;;;8.75;2.65;;;;;;;;;;10334732;28;20064;-59
2021/05/07 13:27:29;;;;;;;3.85;2.25;;;;;;;;;;10339470;28;20044;-59
2021/05/07 13:32:30;;;;;;;5.63;2.95;;;;;;;;;;10339378;28;20063;-59
2021/05/07 13:37:28;;;;;;;6.03;1.60;;;;;;;;;;10339227;28;20070;-58
2021/05/07 13:42:25;;;;;;;2.65;1.50;;;;;;;;;;10341600;28;20040;-60
2021/05/07 13:47:23;;;;;;;9.18;1.73;;;;;;;;;;10341646;28;20066;-60
2021/05/07 13:52:22;;;;;;;2.67;1.88;;;;;;;;;;10342059;28;20040;-60
2021/05/07 13:57:20;;;;;;;4.22;2.13;;;;;;;;;;10341620;28;20079;-61
2021/05/07 14:02:18;;;;;;;3.15;1.60;;;;;;;;;;10341844;28;20055;-61
2021/05/07 14:07:15;;;;;;;2.88;2.08;;;;;;;;;;10342399;28;20071;-61
2021/05/07 14:12:14;;;;;;;4.43;1.77;;;;;;;;;;10335453;28;20091;-61
2021/05/07 14:17:12;;;;;;;1.92;1.63;;;;;;;;;;10318358;28;20188;-60
2021/05/07 14:28:40;;;;;;;3.95;2.20;;;;;;;;;;10200780;28;20089;-61
2021/05/07 14:33:38;;;;;;;3.58;2.05;;;;;;;;;;10268651;28;20151;-61
2021/05/07 14:38:35;;;;;;;7.13;2.20;;;;;;;;;;10297584;28;20192;-60
2021/05/07 14:43:33;;;;;;;4.63;2.15;;;;;;;;;;10304460;28;20134;-61
2021/05/07 14:48:31;;;;;;;3.80;2.13;;;;;;;;;;10295689;28;20076;-61
2021/05/07 14:53:28;;;;;;;6.32;2.10;;;;;;;;;;10293341;28;20078;-60
2021/05/07 14:58:26;;;;;;;4.78;1.70;;;;;;;;;;10320052;28;20090;-61
2021/05/07 15:03:23;;;;;;;7.45;1.67;;;;;;;;;;10338629;28;20036;-61
2021/05/07 15:08:22;;;;;;;5.22;1.88;;;;;;;;;;10340251;28;20039;-61
2021/05/07 15:13:20;;;;;;;3.60;1.70;;;;;;;;;;10335382;28;20087;-61
2021/05/07 15:18:18;;;;;;;4.65;1.70;;;;;;;;;;10339818;28;20040;-61
2021/05/07 15:23:15;;;;;;;6.38;2.28;;;;;;;;;;10336742;28;20051;-60
2021/05/07 15:28:13;;;;;;;7.90;3.50;;;;;;;;;;10338144;28;20142;-61
2021/05/07 15:33:11;;;;;;;3.60;2.00;;;;;;;;;;10338417;28;20036;-61
2021/05/07 15:38:08;;;;;;;5.57;3.08;;;;;;;;;;10337264;28;20568;-60
2021/05/07 15:43:07;;;;;;;5.38;3.70;;;;;;;;;;10338876;28;20045;-60
2021/05/07 15:48:08;;;;;;;5.60;3.70;;;;;;;;;;10334743;28;20079;-60
2021/05/07 15:53:06;;;;;;;8.63;4.30;;;;;;;;;;10334192;28;20040;-60
2021/05/07 15:58:04;;;;;;;12.43;5.95;;;;;;;;;;10333506;28;20082;-60
2021/05/07 16:03:01;;;;;;;7.03;3.63;;;;;;;;;;10338030;28;20055;-60
2021/05/07 16:07:59;;;;;;;16.60;11.35;;;;;;;;;;10336851;28;20044;-61
2021/05/07 16:12:56;;;;;;;5.72;3.10;;;;;;;;;;10337028;28;20105;-61
2021/05/07 16:17:54;;;;;;;4.63;2.50;;;;;;;;;;10337242;28;20079;-60
2021/05/07 16:22:51;;;;;;;8.98;3.92;;;;;;;;;;10334820;28;20051;-59
2021/05/07 16:27:51;;;;;;;9.90;4.93;;;;;;;;;;10337158;28;20040;-59
2021/05/07 16:32:48;;;;;;;6.35;4.15;;;;;;;;;;10325762;28;20504;-60
2021/05/07 16:37:48;;;;;;;9.35;3.42;;;;;;;;;;10334420;28;20079;-60
2021/05/07 16:42:45;;;;;;;6.97;5.07;;;;;;;;;;10336271;28;20071;-60
2021/05/07 16:47:43;;;;;;;8.25;3.67;;;;;;;;;;10334487;28;20047;-60
2021/05/07 16:52:42;;;;;;;15.00;6.93;;;;;;;;;;10335821;28;20040;-60
2021/05/07 16:57:40;;;;;;;9.88;7.13;;;;;;;;;;10335678;28;20091;-61
2021/05/07 17:02:40;;;;;;;16.10;8.27;;;;;;;;;;10338103;28;20048;-61
2021/05/07 17:07:39;;;;;;;17.30;9.80;;;;;;;;;;10344744;28;20484;-60
2021/05/07 17:12:36;;;;;;;15.70;9.98;;;;;;;;;;10335326;28;20036;-60
2021/05/07 17:17:33;;;;;;;15.80;9.02;;;;;;;;;;10315717;28;20469;-58
2021/05/07 17:22:31;;;;;;;13.95;6.80;;;;;;;;;;10314514;28;20080;-57
2021/05/07 17:27:29;;;;;;;16.67;8.50;;;;;;;;;;10330296;28;20072;-58
2021/05/07 17:32:26;;;;;;;17.75;8.80;;;;;;;;;;10325678;28;20068;-59
2021/05/07 17:37:25;;;;;;;13.20;8.68;;;;;;;;;;10325007;28;20072;-60
2021/05/07 17:42:23;;;;;;;25.45;13.35;;;;;;;;;;10329444;28;20071;-58
2021/05/07 17:47:22;;;;;;;12.57;6.35;;;;;;;;;;10322685;28;20067;-59
2021/05/07 17:52:20;;;;;;;9.63;5.05;;;;;;;;;;10331381;28;20501;-59
2021/05/07 17:57:18;;;;;;;10.20;5.03;;;;;;;;;;10329248;28;20487;-57
2021/05/07 18:02:16;;;;;;;16.83;9.95;;;;;;;;;;10311156;28;20073;-58
2021/05/07 18:07:14;;;;;;;16.90;13.00;;;;;;;;;;10308057;28;20063;-60
2021/05/07 18:12:14;;;;;;;20.42;13.65;;;;;;;;;;10322131;28;20075;-60
2021/05/07 18:17:12;;;;;;;13.88;7.28;;;;;;;;;;10321199;28;20071;-60
2021/05/07 18:22:10;;;;;;;16.35;10.40;;;;;;;;;;10332285;28;20056;-60
2021/05/07 18:27:08;;;;;;;21.48;12.65;;;;;;;;;;10329564;28;20068;-60
2021/05/07 18:32:07;;;;;;;24.30;12.63;;;;;;;;;;10336122;28;20048;-59
2021/05/07 18:37:07;;;;;;;43.75;22.58;;;;;;;;;;10338394;28;20144;-59
2021/05/07 18:42:05;;;;;;;24.58;13.43;;;;;;;;;;10322495;28;20454;-59
2021/05/07 18:47:05;;;;;;;21.73;11.98;;;;;;;;;;10322061;28;20060;-57
2021/05/07 18:52:03;;;;;;;9.90;5.65;;;;;;;;;;10295498;28;20607;-58
2021/05/07 18:57:00;;;;;;;11.23;5.32;;;;;;;;;;10320145;28;20087;-60
2021/05/07 19:01:58;;;;;;;4.63;2.92;;;;;;;;;;10300940;28;20442;-60
2021/05/07 19:06:56;;;;;;;5.38;3.15;;;;;;;;;;10313259;28;20091;-58
2021/05/07 19:11:54;;;;;;;3.30;1.77;;;;;;;;;;10322922;28;20505;-60
2021/05/07 19:16:52;;;;;;;4.03;2.10;;;;;;;;;;10326061;28;20083;-60
2021/05/07 19:21:49;;;;;;;4.60;2.55;;;;;;;;;;10327589;28;20065;-60
2021/05/07 19:26:50;;;;;;;6.82;2.80;;;;;;;;;;10328865;28;20042;-59
2021/05/07 19:31:47;;;;;;;4.65;2.78;;;;;;;;;;10337679;28;20039;-58
2021/05/07 19:36:45;;;;;;;6.35;1.83;;;;;;;;;;10330805;28;20088;-60
2021/05/07 19:41:43;;;;;;;7.55;2.55;;;;;;;;;;10331856;28;20068;-60
2021/05/07 19:46:50;;;;;;;3.90;2.25;;;;;;;;;;10325303;28;20073;-59
2021/05/07 19:51:47;;;;;;;8.82;4.30;;;;;;;;;;10333614;28;20060;-59
2021/05/07 19:56:45;;;;;;;5.15;2.75;;;;;;;;;;10323006;28;20071;-58
2021/05/07 20:01:44;;;;;;;14.63;9.27;;;;;;;;;;10329037;28;20572;-59
2021/05/07 20:06:43;;;;;;;12.32;7.25;;;;;;;;;;10326596;28;20052;-59
2021/05/07 20:12:02;;;;;;;5.10;2.35;;;;;;;;;;10329024;28;20063;-59
2021/05/07 20:17:00;;;;;;;4.43;2.47;;;;;;;;;;10334025;28;20095;-58
2021/05/07 20:21:58;;;;;;;3.83;2.03;;;;;;;;;;10336389;28;20048;-59
2021/05/07 20:26:56;;;;;;;8.52;2.63;;;;;;;;;;10336550;28;20055;-59
2021/05/07 20:31:53;;;;;;;4.07;2.30;;;;;;;;;;10334978;28;20071;-60
2021/05/07 20:36:53;;;;;;;6.40;2.22;;;;;;;;;;10321960;28;20079;-59
2021/05/07 20:41:51;;;;;;;8.07;2.40;;;;;;;;;;10332924;28;20044;-59
2021/05/07 20:46:49;;;;;;;4.72;2.55;;;;;;;;;;10329111;28;20041;-59
2021/05/07 20:51:46;;;;;;;4.18;2.13;;;;;;;;;;10332828;28;20059;-60
2021/05/07 20:56:43;;;;;;;5.15;2.42;;;;;;;;;;10336247;28;20072;-59
2021/05/07 21:01:42;;;;;;;5.75;3.10;;;;;;;;;;10335318;28;20056;-59
2021/05/07 21:06:39;;;;;;;4.25;2.13;;;;;;;;;;10327004;28;20079;-59
2021/05/07 21:11:40;;;;;;;6.13;2.15;;;;;;;;;;10335528;28;20040;-59
2021/05/07 21:16:38;;;;;;;3.80;2.38;;;;;;;;;;10331880;28;20095;-59
2021/05/07 21:21:37;;;;;;;8.70;2.63;;;;;;;;;;10336697;28;20079;-59
2021/05/07 21:26:34;;;;;;;3.85;2.00;;;;;;;;;;10334632;28;20032;-60
2021/05/07 21:31:31;;;;;;;5.35;2.35;;;;;;;;;;10334418;28;20072;-59
2021/05/07 21:36:31;;;;;;;8.75;2.47;;;;;;;;;;10334708;28;20068;-58
2021/05/07 21:41:29;;;;;;;7.32;2.17;;;;;;;;;;10334472;28;20485;-58
2021/05/07 21:46:29;;;;;;;1.92;1.73;;;;;;;;;;10335960;28;20106;-59
2021/05/07 21:51:27;;;;;;;7.45;2.60;;;;;;;;;;10339569;28;20044;-58
2021/05/07 21:56:25;;;;;;;5.45;2.30;;;;;;;;;;10324084;28;20073;-59
2021/05/07 22:01:23;;;;;;;6.45;2.30;;;;;;;;;;10339614;28;20055;-59
2021/05/07 22:06:22;;;;;;;6.82;2.03;;;;;;;;;;10342167;28;20449;-59
2021/05/07 22:11:20;;;;;;;3.35;1.67;;;;;;;;;;10340627;28;20071;-59
2021/05/07 22:16:18;;;;;;;4.47;2.13;;;;;;;;;;10340990;28;20084;-59
2021/05/07 22:21:16;;;;;;;4.65;2.38;;;;;;;;;;10341787;28;20505;-60
2021/05/07 22:26:14;;;;;;;7.22;1.90;;;;;;;;;;10339700;28;20501;-59
2021/05/07 22:31:11;;;;;;;3.60;1.85;;;;;;;;;;10337295;28;20154;-59
2021/05/07 22:36:09;;;;;;;3.85;1.77;;;;;;;;;;10332592;28;20072;-59
2021/05/07 22:41:07;;;;;;;6.22;2.35;;;;;;;;;;10337478;28;20036;-59
2021/05/07 22:46:05;;;;;;;5.40;1.90;;;;;;;;;;10341437;28;20068;-59
2021/05/07 22:51:02;;;;;;;5.15;2.15;;;;;;;;;;10339109;28;20091;-59
2021/05/07 22:55:59;;;;;;;9.50;2.90;;;;;;;;;;10335973;28;20076;-59
2021/05/07 23:00:57;;;;;;;6.13;2.20;;;;;;;;;;10339607;28;20063;-58
2021/05/07 23:05:55;;;;;;;6.72;2.20;;;;;;;;;;10337682;28;20060;-59
2021/05/07 23:10:52;;;;;;;6.55;1.90;;;;;;;;;;10337107;28;20055;-60
2021/05/07 23:15:50;;;;;;;3.03;1.85;;;;;;;;;;10338476;28;20076;-59
2021/05/07 23:20:48;;;;;;;4.88;2.03;;;;;;;;;;10337146;28;20524;-59
2021/05/07 23:25:45;;;;;;;5.50;1.90;;;;;;;;;;10339013;28;20044;-58
2021/05/07 23:30:42;;;;;;;4.85;1.90;;;;;;;;;;10337003;28;20512;-58
2021/05/07 23:35:40;;;;;;;1.88;1.40;;;;;;;;;;10334005;28;20072;-58
2021/05/07 23:40:38;;;;;;;3.50;2.10;;;;;;;;;;10338209;28;20051;-60
2021/05/07 23:45:35;;;;;;;2.83;1.88;;;;;;;;;;10337073;28;20067;-59
2021/05/07 23:50:32;;;;;;;2.85;2.05;;;;;;;;;;10335460;28;20045;-59
2021/05/07 23:55:30;;;;;;;6.53;2.13;;;;;;;;;;10337541;28;20075;-59
